National Weather Service United States Department of Commerce

Heavy precipitation for parts of the Pacific Northwest

Moisture will continue to stream into the Pacific Northwest for the next several days. Heavy rain will continue along the coast, while heavy snow will impact the highest elevations of the Cascades. In the northern Plains and Upper Great Lakes, more arctic air will bring periods of snow, blustery winds and cold wind chills. Light snow is also possible in New England and the Ohio Valley. Read More >

                                                          ZTL Airspace Summary                         For ATC Planning Purposes Only
A cold front will move southeast through ZTL overnight. Isolated showers in GA/SC/NC will move north-northeast at 25kts. Expect VFR/MVFR conditions over ZTL, lowering over GA/SC/NC to MVFR/IFR and patchy LIFR by 06-09z. Surface winds will be mostly southeast to north at 3-8kts, becoming northeast to northwest by 06-09z. Flight Hazards: LGT-MOD Turbulence FL230-380 over GA/SC/NC/VA and between FL180-410 over AL/TN. Occasional LGT-MOD Rime Icing from 090-FL250 over GA/SC/NC.

Updated:11/21/2017 7:30 PM
 

Terminal Aerodrome Forecasts (TAFs) for ATL/AHN/CSG/MCN
Hartsfield-Jackson Atlanta International Airport Terminal Aerodrome Forecast:
 
FTUS80 KATL 220827 AAA
KATL 220823Z 2208/2312 34006KT P6SM FEW015 SCT030 SCT150
     FM221200 34012G18KT P6SM SCT250
     FM222200 34008KT P6SM SCT250
     FM230600 02007KT P6SM BKN035

 

ATL METAR:  
SAUS70 KATL 220900
METAR KATL 220852Z 34006KT 10SM FEW150 FEW200 12/12 A3001 RMK AO2 SLP159
     60000 T01170117 58007

Athens/Ben Epps Airport Terminal Aerodrome Forecast:
 
FTUS42 KFFC 220520
TAFAHN
TAF
KAHN 220520Z 2206/2306 VRB03KT P6SM SCT025 BKN050
      TEMPO 2206/2210 3SM BR SCT008 BKN025
     FM221300 32004KT P6SM SCT025 SCT250
     FM221500 34007KT P6SM SCT250
     FM230000 04005KT P6SM BKN040=

 

AHN METAR:  
SAUS70 KAHN 220900
METAR KAHN 220851Z AUTO 31004KT 8SM SCT024 BKN048 10/10 A3001 RMK AO2
     SLP161 60000 T01000100 56006

Columbus Airport Terminal Aerodrome Forecast:
 
FTUS80 KCSG 220521 RRD
KCSG 220520Z 2206/2306 VRB03KT P6SM SCT025 BKN045
      TEMPO 2206/2210 5SM BR SCT008 BKN025
     FM221200 02005KT P6SM SCT010 BKN030
     FM221400 02007KT P6SM SCT030 BKN100
     FM221600 01008KT P6SM BKN100
     FM221800 01008KT P6SM BKN250
     FM230500 02005KT P6SM SCT035

 

CSG METAR:  
SAUS70 KCSG 220900
METAR KCSG 220851Z AUTO 01004KT 10SM OVC018 15/13 A3000 RMK AO2 SLP155
     T01500128 56009

Middle Georgia Regional Airport:
 
FTUS80 KMCN 220836 AAA
KMCN 220834Z 2209/2306 00000KT 6SM BR SCT005 BKN060
      TEMPO 2209/2212 3SM BR SCT005 BKN025
     FM221200 00000KT P6SM SCT025 BKN050
     FM221400 34005KT P6SM SCT025 BKN100
     FM221600 35006KT P6SM SCT015 BKN100
     FM221800 35006KT P6SM BKN250
     FM230300 02004KT P6SM BKN035

 

MCN METAR:  
SAUS80 KMCN 220900 RRB
METAR KMCN 220853Z AUTO 30003KT 6SM BR SCT039 BKN045 OVC060 11/11 A3000
     RMK AO2 SLP155 T01110111 55006

TRACON Hazards for ATL/AHN/CSG/MCN

ATL TRACON HAZARD

AHN TRACON HAZARD

CSG TRACON HAZARD

MCN TRACON HAZARD

 

ATL Convection Gates  ATL Icing Gates
Forecast Surface Map Loop / Collaborative Convective Forecast Product / Vertical Wind Profile
Weather Map

 

AIRMETs & SIGMETS/ Southeast Radar loop / Satellite Image (click on image to enlarge)
Weather Map Southeast Radar Loop

satellite